Time;durP1;ratioP1;P1;durP2;ratioP2;P2;SDS_P1;SDS_P2;PMS_P1;PMS_P2;Temp;Humidity;BMP_temperature;BMP_pressure;BME280_temperature;BME280_humidity;BME280_pressure;Samples;Min_cycle;Max_cycle;Signal;HPM_P1;HPM_P2
2021/08/05 00:02:18;;;;;;;6.57;4.90;;;15.90;99.90;;;;;;5088523;28;20048;-59
2021/08/05 00:04:46;;;;;;;7.80;4.68;;;15.70;99.90;;;;;;5086488;28;20117;-60
2021/08/05 00:07:15;;;;;;;5.68;4.53;;;15.70;99.90;;;;;;5085298;28;20056;-57
2021/08/05 00:09:43;;;;;;;10.50;5.18;;;15.60;99.90;;;;;;5093138;28;20036;-59
2021/08/05 00:12:13;;;;;;;6.75;5.00;;;15.60;99.90;;;;;;5086971;28;20052;-60
2021/08/05 00:14:45;;;;;;;7.03;4.80;;;15.50;99.90;;;;;;5090374;28;20092;-60
2021/08/05 00:17:12;;;;;;;7.32;5.07;;;15.50;99.90;;;;;;5084768;28;20048;-59
2021/08/05 00:19:39;;;;;;;6.20;4.55;;;15.50;99.90;;;;;;5086741;28;20048;-59
2021/08/05 00:22:06;;;;;;;5.53;5.03;;;15.40;99.90;;;;;;5084724;28;20051;-59
2021/08/05 00:24:32;;;;;;;5.75;4.43;;;15.40;99.90;;;;;;5081448;28;20052;-56
2021/08/05 00:27:10;;;;;;;6.93;4.65;;;15.30;99.90;;;;;;5074093;28;20056;-58
2021/08/05 00:29:39;;;;;;;6.10;5.10;;;15.30;99.90;;;;;;5087417;28;20052;-58
2021/08/05 00:32:06;;;;;;;6.10;5.05;;;15.20;99.90;;;;;;5086429;28;20526;-59
2021/08/05 00:34:35;;;;;;;7.38;5.03;;;15.20;99.90;;;;;;5088636;28;20060;-59
2021/08/05 00:37:01;;;;;;;7.05;5.05;;;15.10;99.90;;;;;;5086237;28;20052;-60
2021/08/05 00:39:31;;;;;;;7.47;4.65;;;15.20;99.90;;;;;;5084230;28;20049;-57
2021/08/05 00:41:58;;;;;;;7.35;5.10;;;15.20;99.90;;;;;;5084335;28;20052;-56
2021/08/05 00:44:24;;;;;;;5.90;4.82;;;15.00;99.90;;;;;;5085995;28;20503;-57
2021/08/05 00:46:54;;;;;;;5.78;4.60;;;15.00;99.90;;;;;;5090559;28;20404;-52
2021/08/05 00:49:22;;;;;;;6.72;5.07;;;15.00;99.90;;;;;;5084739;28;20048;-57
2021/08/05 00:51:49;;;;;;;6.40;4.75;;;15.10;99.90;;;;;;5083136;28;20605;-58
2021/08/05 00:54:18;;;;;;;8.30;4.65;;;15.00;99.90;;;;;;5085330;28;20098;-55
2021/08/05 00:56:44;;;;;;;5.65;4.75;;;15.00;99.90;;;;;;5090125;28;20046;-56
2021/08/05 00:59:11;;;;;;;6.78;4.65;;;15.00;99.90;;;;;;5084455;28;20496;-55
2021/08/05 01:01:53;;;;;;;5.93;5.00;;;15.10;99.90;;;;;;5064850;28;20052;-60
2021/08/05 01:04:20;;;;;;;6.80;5.07;;;15.00;99.90;;;;;;5094918;28;20090;-58
2021/08/05 01:06:49;;;;;;;10.82;4.57;;;15.00;99.90;;;;;;5083142;28;20131;-58
2021/08/05 01:09:39;;;;;;;7.30;4.75;;;15.00;99.90;;;;;;5089620;28;20562;-60
2021/08/05 01:12:18;;;;;;;6.50;4.57;;;15.10;99.90;;;;;;5081733;28;20072;-59
2021/08/05 01:14:51;;;;;;;7.22;4.95;;;15.00;99.90;;;;;;5075253;28;20063;-58
2021/08/05 01:17:22;;;;;;;5.72;4.78;;;14.90;99.90;;;;;;5070102;28;20045;-59
2021/08/05 01:19:54;;;;;;;6.15;5.20;;;14.90;99.90;;;;;;5082066;28;20068;-55
2021/08/05 01:22:33;;;;;;;6.55;5.00;;;14.90;99.90;;;;;;5083009;28;20431;-59
2021/08/05 01:25:11;;;;;;;5.78;4.65;;;14.80;99.90;;;;;;5074125;28;20058;-59
2021/08/05 01:27:42;;;;;;;9.30;4.97;;;14.80;99.90;;;;;;5083827;28;20087;-60
2021/08/05 01:30:10;;;;;;;5.95;5.00;;;14.80;99.90;;;;;;5086033;28;20085;-58
2021/08/05 01:32:39;;;;;;;5.63;4.88;;;14.80;99.90;;;;;;5092722;28;20146;-58
2021/08/05 01:35:08;;;;;;;8.70;4.93;;;14.80;99.90;;;;;;5085943;28;20044;-58
2021/08/05 01:37:36;;;;;;;7.22;5.63;;;14.70;99.90;;;;;;5087587;28;20048;-60
2021/08/05 01:40:04;;;;;;;8.75;5.05;;;14.70;99.90;;;;;;5081697;28;20143;-55
2021/08/05 01:42:31;;;;;;;6.38;5.32;;;14.60;99.90;;;;;;5085825;28;20048;-57
2021/08/05 01:45:02;;;;;;;7.28;5.43;;;14.60;99.90;;;;;;5085854;28;20550;-56
2021/08/05 01:47:30;;;;;;;6.35;5.50;;;14.60;99.90;;;;;;5085152;28;20117;-60
2021/08/05 01:49:57;;;;;;;6.10;5.50;;;14.50;99.90;;;;;;5084561;28;20083;-58
2021/08/05 01:52:25;;;;;;;6.53;5.75;;;14.50;99.90;;;;;;5083217;28;20052;-54
2021/08/05 01:54:52;;;;;;;8.52;6.13;;;14.50;99.90;;;;;;5072686;28;20052;-56
2021/08/05 01:57:22;;;;;;;6.70;5.78;;;14.50;99.90;;;;;;5085435;28;20101;-57
2021/08/05 01:59:51;;;;;;;7.88;5.82;;;14.50;99.90;;;;;;5084345;28;20047;-60
2021/08/05 02:02:18;;;;;;;7.40;6.13;;;14.40;99.90;;;;;;5082542;28;20083;-60
2021/08/05 02:04:58;;;;;;;6.70;6.00;;;14.40;99.90;;;;;;5085835;28;20578;-56
2021/08/05 02:07:37;;;;;;;5.90;5.28;;;14.30;99.90;;;;;;5089268;28;20117;-54
2021/08/05 02:10:33;;;;;;;8.27;6.07;;;14.40;99.90;;;;;;5095698;28;20040;-60
2021/08/05 02:13:07;;;;;;;6.93;5.70;;;14.30;99.90;;;;;;5089342;28;20052;-57
2021/08/05 02:15:36;;;;;;;8.55;6.55;;;14.30;99.90;;;;;;5086936;28;20121;-58
2021/08/05 02:18:04;;;;;;;7.45;6.50;;;14.30;99.90;;;;;;5087571;28;20131;-58
2021/08/05 02:20:33;;;;;;;7.28;5.57;;;14.30;99.90;;;;;;5086687;28;20058;-57
2021/08/05 02:22:59;;;;;;;7.43;6.13;;;14.30;99.90;;;;;;5083341;28;20201;-58
2021/08/05 02:25:29;;;;;;;9.38;6.93;;;14.30;99.90;;;;;;5088230;28;20440;-59
2021/08/05 02:27:56;;;;;;;7.28;6.38;;;14.30;99.90;;;;;;5087602;28;20052;-58
2021/08/05 02:30:23;;;;;;;7.50;6.25;;;14.30;99.90;;;;;;5084831;28;20052;-58
2021/08/05 02:32:50;;;;;;;8.70;6.82;;;14.30;99.90;;;;;;5082092;28;20078;-57
2021/08/05 02:35:18;;;;;;;8.55;7.65;;;14.30;99.90;;;;;;5087608;28;20059;-56
2021/08/05 02:37:45;;;;;;;7.75;6.57;;;14.20;99.90;;;;;;5081438;28;20044;-59
2021/08/05 02:40:12;;;;;;;8.90;7.07;;;14.30;99.90;;;;;;5076482;28;20060;-54
2021/08/05 02:42:39;;;;;;;8.70;7.30;;;14.30;99.90;;;;;;5081930;28;20117;-60
2021/08/05 02:45:06;;;;;;;7.75;6.40;;;14.30;99.90;;;;;;5089153;28;20047;-59
2021/08/05 02:47:33;;;;;;;8.02;6.97;;;14.20;99.90;;;;;;5087624;28;20074;-57
2021/08/05 02:50:05;;;;;;;9.70;7.45;;;14.20;99.90;;;;;;5087111;28;20059;-60
2021/08/05 02:52:32;;;;;;;8.40;7.05;;;14.20;99.90;;;;;;5093061;28;20496;-58
2021/08/05 02:54:59;;;;;;;9.32;8.00;;;14.10;99.90;;;;;;5089891;28;20052;-60
2021/08/05 02:57:26;;;;;;;9.35;7.93;;;14.10;99.90;;;;;;5083151;28;20048;-59
2021/08/05 02:59:52;;;;;;;9.07;8.02;;;14.00;99.90;;;;;;5082991;28;20159;-59
2021/08/05 03:02:19;;;;;;;8.75;7.30;;;14.00;99.90;;;;;;5084444;28;20048;-58
2021/08/05 03:04:47;;;;;;;8.38;7.57;;;13.90;99.90;;;;;;5086548;28;20817;-60
2021/08/05 03:07:16;;;;;;;9.35;7.30;;;14.00;99.90;;;;;;5087178;28;21712;-58
2021/08/05 03:09:42;;;;;;;8.82;7.78;;;13.90;99.90;;;;;;5086827;28;20079;-60
2021/08/05 03:12:09;;;;;;;8.75;7.85;;;13.90;99.90;;;;;;5082931;28;20043;-59
2021/08/05 03:14:35;;;;;;;8.50;7.47;;;13.90;99.90;;;;;;5092002;28;20581;-59
2021/08/05 03:17:02;;;;;;;9.85;6.95;;;13.90;99.90;;;;;;5087306;28;20488;-58
2021/08/05 03:19:33;;;;;;;8.05;7.25;;;13.90;99.90;;;;;;5086420;28;20051;-60
2021/08/05 03:22:01;;;;;;;11.55;8.48;;;13.80;99.90;;;;;;5085640;28;20133;-59
2021/08/05 03:24:30;;;;;;;10.57;8.50;;;13.80;99.90;;;;;;5074109;28;20506;-59
2021/08/05 03:26:57;;;;;;;10.77;8.77;;;13.70;99.90;;;;;;5086625;28;20228;-60
2021/08/05 03:29:23;;;;;;;10.77;9.68;;;13.70;99.90;;;;;;5070153;28;20087;-59
2021/08/05 03:31:49;;;;;;;10.48;9.43;;;13.70;99.90;;;;;;5084251;28;20118;-60
2021/08/05 03:34:19;;;;;;;10.43;9.10;;;13.70;99.90;;;;;;5087024;28;20735;-60
2021/08/05 03:36:46;;;;;;;10.05;9.05;;;13.70;99.90;;;;;;5087075;28;20071;-59
2021/08/05 03:39:12;;;;;;;10.63;9.52;;;13.70;99.90;;;;;;5079444;28;20065;-58
2021/08/05 03:41:39;;;;;;;12.75;10.82;;;13.70;99.90;;;;;;5089608;28;20467;-59
2021/08/05 03:44:07;;;;;;;12.30;10.07;;;13.80;99.90;;;;;;5083152;28;20487;-58
2021/08/05 03:46:35;;;;;;;11.40;10.10;;;13.80;99.90;;;;;;5086464;28;20048;-59
2021/08/05 03:49:01;;;;;;;13.07;11.05;;;13.90;99.90;;;;;;5094874;28;20058;-59
2021/08/05 03:51:27;;;;;;;12.40;11.10;;;13.90;99.90;;;;;;5101470;28;20051;-58
2021/08/05 03:53:55;;;;;;;13.25;11.65;;;13.90;99.90;;;;;;5089349;28;20039;-57
2021/08/05 03:56:22;;;;;;;12.15;10.68;;;13.90;99.90;;;;;;5104570;28;20446;-57
2021/08/05 03:58:49;;;;;;;12.27;10.77;;;13.90;99.90;;;;;;5105152;28;20765;-56
2021/08/05 04:01:15;;;;;;;13.70;11.52;;;14.00;99.90;;;;;;5098764;28;20047;-58
2021/08/05 04:03:42;;;;;;;13.43;11.82;;;14.00;99.90;;;;;;5107903;28;20120;-60
2021/08/05 04:06:13;;;;;;;11.85;10.75;;;14.00;99.90;;;;;;5106245;28;20134;-60
2021/08/05 04:08:39;;;;;;;12.48;11.20;;;14.00;99.90;;;;;;5108139;28;20050;-60
2021/08/05 04:11:05;;;;;;;12.80;11.38;;;14.10;99.90;;;;;;5107297;28;20079;-59
2021/08/05 04:13:32;;;;;;;14.10;11.55;;;14.10;99.90;;;;;;5108101;28;21679;-58
2021/08/05 04:15:58;;;;;;;12.73;11.52;;;14.10;99.90;;;;;;5106995;28;20047;-60
2021/08/05 04:18:25;;;;;;;14.48;13.07;;;14.10;99.90;;;;;;5108460;28;20047;-58
2021/08/05 04:20:52;;;;;;;13.38;12.05;;;14.10;99.90;;;;;;5109390;28;20054;-56
2021/08/05 04:23:18;;;;;;;13.23;11.82;;;14.10;99.90;;;;;;5097179;28;20057;-60
2021/08/05 04:25:46;;;;;;;13.80;12.20;;;14.00;99.90;;;;;;5102519;28;20125;-59
2021/08/05 04:28:13;;;;;;;12.93;11.63;;;14.10;99.90;;;;;;5091476;28;20068;-59
2021/08/05 04:30:40;;;;;;;12.95;11.65;;;14.10;99.90;;;;;;5103463;28;20423;-59
2021/08/05 04:33:06;;;;;;;13.13;11.68;;;14.10;99.90;;;;;;5087956;28;20412;-57
2021/08/05 04:35:41;;;;;;;;;;;14.10;99.90;;;;;;5107701;28;20048;-60
2021/08/05 04:38:10;;;;;;;13.52;12.07;;;14.10;99.90;;;;;;5108894;28;20646;-56
2021/08/05 04:40:37;;;;;;;12.55;11.25;;;14.20;99.90;;;;;;5107592;28;20036;-58
2021/08/05 04:43:03;;;;;;;14.20;12.80;;;14.20;99.90;;;;;;5105633;28;20213;-59
2021/08/05 04:45:31;;;;;;;13.32;12.02;;;14.30;99.90;;;;;;5106636;28;20083;-60
2021/08/05 04:48:05;;;;;;;14.13;12.73;;;14.30;99.90;;;;;;5105831;28;20098;-57
2021/08/05 04:50:35;;;;;;;12.65;11.45;;;14.40;99.90;;;;;;5092715;28;20152;-60
2021/08/05 04:53:02;;;;;;;13.52;12.13;;;14.40;99.90;;;;;;5099832;28;20837;-59
2021/08/05 04:55:34;;;;;;;14.73;12.68;;;14.40;99.90;;;;;;5097679;28;20052;-58
2021/08/05 04:58:05;;;;;;;14.38;12.80;;;14.50;99.90;;;;;;5089599;28;20051;-60
2021/08/05 05:00:35;;;;;;;14.25;12.73;;;14.50;99.90;;;;;;5105976;28;20767;-58
2021/08/05 05:03:04;;;;;;;15.35;13.52;;;14.50;99.90;;;;;;5103173;28;20050;-60
2021/08/05 05:05:31;;;;;;;14.20;12.52;;;14.50;99.90;;;;;;5108374;28;20500;-60
2021/08/05 05:08:10;;;;;;;14.63;13.13;;;14.50;99.90;;;;;;5104090;28;20048;-56
2021/08/05 05:10:36;;;;;;;14.68;12.43;;;14.50;99.90;;;;;;5102028;28;20052;-57
2021/08/05 05:13:05;;;;;;;13.90;12.60;;;14.50;99.90;;;;;;5109004;28;20048;-57
2021/08/05 05:15:35;;;;;;;17.30;13.93;;;14.60;99.90;;;;;;5111556;28;20050;-58
2021/08/05 05:18:01;;;;;;;15.27;13.77;;;14.60;99.90;;;;;;5105669;28;20067;-46
2021/08/05 05:20:28;;;;;;;15.20;13.70;;;14.60;99.90;;;;;;5085658;28;20071;-51
2021/08/05 05:22:58;;;;;;;16.27;14.30;;;14.70;99.90;;;;;;5103451;28;20048;-49
2021/08/05 05:25:24;;;;;;;63.25;56.45;;;14.70;99.90;;;;;;5103923;28;20051;-52
2021/08/05 05:27:54;;;;;;;16.15;14.57;;;14.80;99.90;;;;;;5107451;28;20048;-51
2021/08/05 05:30:23;;;;;;;21.63;18.95;;;14.80;99.90;;;;;;5103926;28;20055;-55
2021/08/05 05:32:50;;;;;;;16.15;14.52;;;14.80;99.90;;;;;;5108635;28;20097;-54
2021/08/05 05:35:20;;;;;;;16.63;14.93;;;14.80;99.90;;;;;;5110162;28;20047;-54
2021/08/05 05:37:53;;;;;;;16.13;14.52;;;14.80;99.90;;;;;;5106225;28;20051;-53
2021/08/05 05:40:19;;;;;;;17.50;15.65;;;14.80;99.90;;;;;;5083941;28;20052;-53
2021/08/05 05:42:46;;;;;;;17.13;15.60;;;14.80;99.90;;;;;;5106607;28;20051;-55
2021/08/05 05:45:17;;;;;;;17.58;14.68;;;14.90;99.90;;;;;;5113037;28;20058;-50
2021/08/05 05:47:48;;;;;;;16.55;15.00;;;14.90;99.90;;;;;;5110915;28;20963;-52
2021/08/05 05:50:15;;;;;;;16.30;14.63;;;15.00;99.90;;;;;;5111770;28;20141;-53
2021/08/05 05:52:42;;;;;;;16.23;14.63;;;15.00;99.90;;;;;;5110701;28;20043;-51
2021/08/05 05:55:12;;;;;;;17.15;15.50;;;15.10;99.90;;;;;;5110828;28;20047;-54
2021/08/05 05:57:47;;;;;;;16.88;15.27;;;15.20;99.90;;;;;;5095571;28;20044;-56
2021/08/05 06:00:19;;;;;;;16.92;15.43;;;15.20;99.90;;;;;;5097071;28;20039;-54
2021/08/05 06:02:45;;;;;;;15.45;13.68;;;15.30;99.90;;;;;;5090520;28;20043;-56
2021/08/05 06:05:17;;;;;;;30.05;26.88;;;15.50;99.90;;;;;;5116826;28;20048;-55
2021/08/05 06:07:50;;;;;;;14.90;13.50;;;15.60;99.90;;;;;;5125536;27;20134;-55
2021/08/05 06:10:19;;;;;;;15.68;13.85;;;16.00;99.90;;;;;;5110270;28;20055;-51
2021/08/05 06:12:49;;;;;;;15.23;13.68;;;16.30;99.90;;;;;;5113182;27;20115;-53
2021/08/05 06:15:19;;;;;;;14.40;12.98;;;16.60;99.90;;;;;;5107449;28;20423;-54
2021/08/05 06:17:46;;;;;;;16.40;12.80;;;16.90;99.90;;;;;;5104773;27;20049;-52
2021/08/05 06:20:14;;;;;;;14.60;13.10;;;17.10;99.90;;;;;;5113181;28;20130;-50
2021/08/05 06:22:42;;;;;;;21.75;17.75;;;17.50;99.90;;;;;;5111627;28;20156;-57
2021/08/05 06:25:09;;;;;;;29.85;26.73;;;17.90;99.90;;;;;;5111465;28;20055;-55
2021/08/05 06:27:38;;;;;;;19.98;17.15;;;18.10;99.90;;;;;;5112979;28;20040;-55
2021/08/05 06:30:06;;;;;;;13.32;11.95;;;18.30;99.90;;;;;;5114839;28;20126;-55
2021/08/05 06:32:33;;;;;;;12.07;9.75;;;18.20;99.90;;;;;;5108984;28;20051;-55
2021/08/05 06:35:03;;;;;;;11.60;10.40;;;18.30;99.90;;;;;;5110335;28;20054;-56
2021/08/05 06:37:31;;;;;;;12.85;11.60;;;18.50;99.90;;;;;;5071628;28;20503;-57
2021/08/05 06:40:04;;;;;;;11.68;10.50;;;18.70;99.90;;;;;;5108757;28;20043;-55
2021/08/05 06:42:35;;;;;;;24.92;22.63;;;18.90;99.90;;;;;;5106704;28;20052;-62
2021/08/05 06:45:04;;;;;;;11.45;9.90;;;19.30;99.90;;;;;;5108597;28;20082;-55
2021/08/05 06:47:34;;;;;;;9.82;8.93;;;19.40;99.90;;;;;;5110800;28;20055;-55
2021/08/05 06:50:04;;;;;;;9.80;8.80;;;19.70;99.90;;;;;;5110033;28;20043;-55
2021/08/05 06:52:32;;;;;;;10.07;8.73;;;19.80;99.90;;;;;;5090554;28;20051;-57
2021/08/05 06:55:04;;;;;;;10.05;9.07;;;19.90;99.90;;;;;;5108296;28;20050;-55
2021/08/05 06:57:30;;;;;;;13.80;12.52;;;20.00;99.90;;;;;;5110162;28;20051;-54
2021/08/05 07:00:00;;;;;;;12.63;11.32;;;19.90;99.90;;;;;;5109432;28;20538;-52
2021/08/05 07:02:31;;;;;;;9.98;9.02;;;20.00;99.90;;;;;;5109802;28;20079;-55
2021/08/05 07:05:09;;;;;;;10.32;9.32;;;20.00;99.90;;;;;;5110239;28;20048;-55
2021/08/05 07:07:35;;;;;;;95.53;86.38;;;20.20;99.90;;;;;;5108787;28;20515;-50
2021/08/05 07:10:04;;;;;;;9.57;8.55;;;20.30;99.90;;;;;;5110142;28;20245;-58
2021/08/05 07:12:31;;;;;;;33.33;30.13;;;20.50;99.90;;;;;;5109734;28;20052;-57
2021/08/05 07:15:00;;;;;;;42.30;38.20;;;20.60;99.90;;;;;;5109772;28;20097;-56
2021/08/05 07:17:26;;;;;;;19.58;17.60;;;20.60;99.90;;;;;;5109241;28;20039;-63
2021/08/05 07:20:06;;;;;;;13.30;12.00;;;21.00;99.90;;;;;;5110203;28;20043;-66
2021/08/05 07:22:33;;;;;;;8.82;8.00;;;21.10;99.90;;;;;;5109654;28;20434;-67
2021/08/05 07:25:01;;;;;;;10.07;9.07;;;21.00;99.90;;;;;;5109883;28;20407;-61
2021/08/05 07:27:28;;;;;;;8.48;7.60;;;21.10;99.90;;;;;;5109300;28;20051;-65
2021/08/05 07:29:57;;;;;;;30.08;27.23;;;20.90;99.90;;;;;;5109391;28;20055;-61
2021/08/05 07:32:26;;;;;;;29.02;26.25;;;20.60;99.90;;;;;;5091384;28;20096;-63
2021/08/05 07:35:00;;;;;;;13.82;12.57;;;20.70;99.90;;;;;;5085433;28;20048;-62
2021/08/05 07:37:31;;;;;;;10.70;9.70;;;20.50;99.90;;;;;;5089582;28;20048;-61
2021/08/05 07:40:06;;;;;;;7.90;7.20;;;20.70;99.90;;;;;;5090354;28;20048;-65
2021/08/05 07:42:35;;;;;;;10.82;9.75;;;20.60;99.90;;;;;;5109575;28;20059;-61
2021/08/05 07:45:04;;;;;;;8.25;7.40;;;20.50;99.90;;;;;;5108866;28;20059;-60
2021/08/05 07:47:30;;;;;;;8.93;8.13;;;20.60;99.90;;;;;;5089702;28;20048;-63
2021/08/05 07:50:02;;;;;;;10.13;7.43;;;21.30;99.90;;;;;;5090305;28;20407;-65
2021/08/05 07:52:31;;;;;;;7.38;6.63;;;21.50;99.90;;;;;;5108604;28;20052;-65
2021/08/05 07:55:05;;;;;;;19.60;17.67;;;22.10;99.90;;;;;;5115573;28;20055;-63
2021/08/05 07:57:37;;;;;;;7.35;6.55;;;22.80;99.90;;;;;;5114540;28;20413;-64
2021/08/05 08:00:07;;;;;;;14.20;12.68;;;22.90;99.90;;;;;;5108868;28;20448;-65
2021/08/05 08:02:40;;;;;;;8.15;7.32;;;23.40;99.90;;;;;;5108342;28;20062;-63
2021/08/05 08:05:06;;;;;;;9.07;7.97;;;23.60;99.90;;;;;;5111990;28;20077;-64
2021/08/05 08:07:41;;;;;;;11.35;10.35;;;23.80;99.90;;;;;;5114377;28;20051;-62
2021/08/05 08:10:11;;;;;;;34.00;30.90;;;24.00;91.80;;;;;;5115323;28;20118;-62
2021/08/05 08:12:40;;;;;;;5.18;3.90;;;23.70;93.90;;;;;;5113382;28;20120;-65
2021/08/05 08:15:09;;;;;;;6.32;5.35;;;23.60;95.30;;;;;;5106489;28;20477;-64
2021/08/05 08:17:36;;;;;;;5.82;4.80;;;23.60;94.80;;;;;;5110740;28;20043;-61
2021/08/05 08:20:06;;;;;;;29.50;26.73;;;23.70;96.00;;;;;;5107321;28;20050;-64
2021/08/05 08:22:37;;;;;;;5.65;5.10;;;24.10;94.50;;;;;;5113529;28;20051;-66
2021/08/05 08:25:10;;;;;;;6.00;5.40;;;24.30;94.10;;;;;;5106867;28;20039;-63
2021/08/05 08:27:40;;;;;;;11.75;10.65;;;24.70;92.80;;;;;;5106468;28;20040;-65
2021/08/05 08:30:11;;;;;;;8.48;7.68;;;24.90;90.30;;;;;;5104712;28;20059;-64
2021/08/05 08:32:44;;;;;;;3.95;3.00;;;25.20;87.80;;;;;;5106752;28;20666;-65
2021/08/05 08:35:11;;;;;;;;;;;25.10;81.20;;;;;;5106684;28;20139;-62
2021/08/05 08:37:43;;;;;;;6.15;4.53;;;25.20;78.00;;;;;;5105893;28;19932;-65
2021/08/05 08:40:11;;;;;;;4.50;3.40;;;25.50;83.80;;;;;;5106648;28;20054;-65
2021/08/05 08:42:43;;;;;;;6.93;6.30;;;25.60;78.60;;;;;;5104663;28;20044;-66
2021/08/05 08:45:16;;;;;;;14.52;13.25;;;25.60;76.90;;;;;;5105231;28;20047;-63
2021/08/05 08:47:54;;;;;;;4.35;3.10;;;26.00;71.90;;;;;;5104089;28;20040;-65
2021/08/05 08:50:32;;;;;;;3.17;2.80;;;26.20;71.60;;;;;;5106483;28;20056;-64
2021/08/05 08:53:07;;;;;;;14.55;13.25;;;25.60;69.90;;;;;;5095279;28;20741;-66
2021/08/05 08:55:34;;;;;;;6.18;5.45;;;25.80;71.20;;;;;;5088683;28;20059;-65
2021/08/05 08:58:03;;;;;;;4.05;3.63;;;26.30;69.40;;;;;;5106393;28;20043;-63
2021/08/05 09:00:36;;;;;;;14.55;13.15;;;26.80;70.80;;;;;;5107062;28;20139;-66
2021/08/05 09:03:07;;;;;;;6.35;5.72;;;27.10;66.60;;;;;;5105481;28;20039;-68
2021/08/05 09:05:34;;;;;;;2.70;2.30;;;27.50;66.60;;;;;;5112137;28;20044;-65
2021/08/05 09:08:09;;;;;;;3.03;2.38;;;27.30;66.40;;;;;;5106845;28;20047;-66
2021/08/05 09:10:40;;;;;;;2.65;2.22;;;27.10;64.10;;;;;;5106418;28;20040;-64
2021/08/05 09:13:24;;;;;;;6.70;5.75;;;26.80;63.60;;;;;;5102333;28;20056;-64
2021/08/05 09:15:56;;;;;;;4.72;3.10;;;26.20;67.10;;;;;;5104412;28;20134;-66
2021/08/05 09:18:35;;;;;;;13.82;12.50;;;26.30;69.00;;;;;;5109648;28;20047;-62
2021/08/05 09:21:25;;;;;;;7.75;6.95;;;27.10;62.90;;;;;;5105047;28;20055;-61
2021/08/05 09:24:07;;;;;;;4.05;3.25;;;27.20;62.80;;;;;;5108049;28;20047;-61
2021/08/05 09:26:44;;;;;;;6.05;3.92;;;27.20;61.20;;;;;;5110523;28;20047;-61
2021/08/05 09:29:22;;;;;;;7.05;6.15;;;26.70;60.90;;;;;;5106351;28;20052;-62
2021/08/05 09:31:51;;;;;;;4.95;4.35;;;26.40;63.80;;;;;;5104398;28;20407;-64
2021/08/05 09:34:31;;;;;;;6.78;5.57;;;26.10;63.10;;;;;;5088920;28;20044;-64
2021/08/05 09:37:03;;;;;;;4.20;2.55;;;26.00;63.80;;;;;;5109403;28;20400;-61
2021/08/05 09:39:31;;;;;;;6.60;4.78;;;25.70;63.20;;;;;;5104003;28;20055;-62
2021/08/05 09:42:12;;;;;;;4.32;2.90;;;25.60;64.50;;;;;;5103383;28;20048;-62
2021/08/05 09:44:49;;;;;;;3.28;2.65;;;25.40;65.90;;;;;;5106162;28;20092;-62
2021/08/05 09:47:22;;;;;;;3.60;2.90;;;25.10;67.00;;;;;;5106239;28;20120;-64
2021/08/05 09:49:51;;;;;;;6.88;6.20;;;25.30;65.50;;;;;;5106608;28;20056;-61
2021/08/05 09:52:29;;;;;;;4.88;2.80;;;24.90;66.00;;;;;;5110331;28;20043;-60
2021/08/05 09:54:59;;;;;;;;;;;24.90;67.60;;;;;;5105827;28;20431;-61
2021/08/05 09:57:34;;;;;;;21.38;19.17;;;25.00;65.80;;;;;;5101477;28;20330;-64
2021/08/05 10:00:45;;;;;;;7.65;6.93;;;24.80;67.20;;;;;;5101280;28;20434;-63
2021/08/05 10:03:28;;;;;;;5.53;4.75;;;25.20;69.20;;;;;;5003621;28;20060;-63
2021/08/05 10:06:03;;;;;;;6.47;4.60;;;25.40;67.00;;;;;;5004186;28;20156;-62
2021/08/05 10:08:39;;;;;;;4.35;3.40;;;25.60;67.00;;;;;;5003469;28;20054;-60
2021/08/05 10:11:11;;;;;;;3.80;2.88;;;25.50;67.80;;;;;;5004382;28;20061;-63
2021/08/05 10:13:39;;;;;;;10.98;9.85;;;25.80;69.50;;;;;;5005884;28;20069;-62
2021/08/05 10:16:13;;;;;;;5.30;4.30;;;25.90;67.80;;;;;;5001694;28;20092;-62
2021/08/05 10:18:41;;;;;;;7.60;6.80;;;25.80;66.20;;;;;;4986137;28;20054;-63
2021/08/05 10:21:14;;;;;;;5.18;4.40;;;26.30;67.00;;;;;;5004596;28;20065;-62
2021/08/05 10:23:44;;;;;;;12.65;11.40;;;26.20;67.70;;;;;;5003570;28;20817;-61
2021/08/05 10:26:13;;;;;;;10.85;9.57;;;26.30;67.40;;;;;;5002229;28;20128;-62
2021/08/05 10:28:48;;;;;;;5.20;4.70;;;26.50;65.20;;;;;;5007275;28;20046;-61
2021/08/05 10:31:20;;;;;;;4.63;3.50;;;26.70;65.30;;;;;;5011973;28;20046;-60
2021/08/05 10:33:53;;;;;;;5.10;3.85;;;26.90;63.60;;;;;;5008782;28;20486;-63
2021/08/05 10:36:21;;;;;;;4.72;2.97;;;27.80;62.40;;;;;;5007817;28;20053;-59
2021/08/05 10:38:54;;;;;;;4.18;3.20;;;28.10;59.70;;;;;;5016468;28;20549;-57
2021/08/05 10:41:20;;;;;;;4.45;3.25;;;28.10;57.80;;;;;;5109765;28;20051;-62
2021/08/05 10:43:50;;;;;;;3.67;2.67;;;28.20;59.60;;;;;;5111363;28;20547;-64
2021/08/05 10:46:20;;;;;;;5.95;3.83;;;28.00;55.90;;;;;;5109722;28;20043;-62
2021/08/05 10:48:52;;;;;;;6.03;5.43;;;28.10;56.20;;;;;;5091069;28;20052;-61
2021/08/05 10:51:27;;;;;;;4.55;2.63;;;28.60;53.80;;;;;;5105792;28;20048;-63
2021/08/05 10:53:56;;;;;;;3.67;2.50;;;29.10;54.20;;;;;;5109054;28;20069;-62
2021/08/05 10:56:25;;;;;;;22.63;20.50;;;28.90;52.70;;;;;;5106583;28;20505;-63
2021/08/05 10:59:08;;;;;;;7.28;5.75;;;29.20;50.30;;;;;;5106406;28;20122;-59
2021/08/05 11:01:50;;;;;;;13.50;11.70;;;29.00;50.60;;;;;;5109021;28;20074;-62
2021/08/05 11:04:46;;;;;;;16.58;15.00;;;29.50;50.70;;;;;;5107294;28;20794;-62
2021/08/05 11:07:33;;;;;;;20.23;18.38;;;30.10;50.10;;;;;;5034600;28;20053;-63
2021/08/05 11:10:33;;;;;;;7.35;6.57;;;29.90;48.90;;;;;;5045231;28;20076;-63
2021/08/05 11:13:08;;;;;;;4.07;3.10;;;29.20;50.10;;;;;;5033575;28;20141;-65
2021/08/05 11:15:38;;;;;;;5.82;3.08;;;28.70;51.60;;;;;;5035416;28;20084;-65
2021/08/05 11:18:10;;;;;;;5.20;3.07;;;28.70;51.70;;;;;;5029028;28;20049;-64
2021/08/05 11:20:44;;;;;;;4.47;2.95;;;28.80;50.40;;;;;;5040189;28;20069;-64
2021/08/05 11:23:25;;;;;;;3.55;2.90;;;29.00;51.20;;;;;;5035657;28;20057;-57
2021/08/05 11:25:55;;;;;;;6.28;3.42;;;28.90;50.10;;;;;;5039667;28;20064;-63
2021/08/05 11:28:27;;;;;;;5.70;3.75;;;28.20;51.60;;;;;;5034856;28;20498;-62
2021/08/05 11:31:07;;;;;;;3.40;2.47;;;28.20;51.40;;;;;;5034103;28;20045;-64
2021/08/05 11:33:42;;;;;;;3.92;2.72;;;28.60;52.00;;;;;;5032881;28;20041;-64
2021/08/05 11:36:33;;;;;;;4.22;2.65;;;28.90;50.20;;;;;;5035551;28;20052;-60
2021/08/05 11:39:21;;;;;;;4.85;3.20;;;28.80;50.50;;;;;;5040402;28;20095;-64
2021/08/05 11:41:53;;;;;;;4.15;2.15;;;29.10;51.00;;;;;;5038277;28;20536;-62
2021/08/05 11:44:28;;;;;;;3.28;2.28;;;29.40;51.30;;;;;;5084376;28;20131;-63
2021/08/05 11:47:19;;;;;;;2.65;1.90;;;29.70;50.20;;;;;;5108721;28;20036;-62
2021/08/05 11:49:59;;;;;;;3.72;2.00;;;29.60;47.30;;;;;;5105715;28;20055;-64
2021/08/05 11:52:30;;;;;;;3.38;2.10;;;29.90;48.30;;;;;;5108111;28;20506;-63
2021/08/05 11:55:07;;;;;;;2.83;2.00;;;30.20;49.00;;;;;;5105164;28;20162;-62
2021/08/05 11:57:49;;;;;;;4.65;2.92;;;29.70;47.60;;;;;;5111726;28;20092;-64
2021/08/05 12:00:22;;;;;;;3.55;2.20;;;29.80;47.00;;;;;;5108067;28;20511;-60
2021/08/05 12:02:51;;;;;;;4.10;2.10;;;29.60;46.80;;;;;;5084566;28;20043;-62
2021/08/05 12:05:26;;;;;;;3.88;2.08;;;29.30;47.30;;;;;;5106896;28;20043;-63
2021/08/05 12:07:57;;;;;;;3.70;2.33;;;28.90;50.90;;;;;;5108128;28;20039;-62
2021/08/05 12:10:32;;;;;;;2.97;2.00;;;29.60;50.90;;;;;;5109123;28;20052;-64
2021/08/05 12:13:15;;;;;;;2.72;2.15;;;29.80;49.40;;;;;;5112148;28;20066;-63
2021/08/05 12:15:46;;;;;;;2.30;1.73;;;29.20;50.40;;;;;;5107369;28;20590;-64
2021/08/05 12:18:20;;;;;;;4.40;2.83;;;28.80;50.20;;;;;;5106330;28;20108;-64
2021/08/05 12:20:53;;;;;;;3.35;2.35;;;28.60;50.30;;;;;;5108492;28;20044;-64
2021/08/05 12:26:37;;;;;;;6.45;5.32;;;28.20;51.50;;;;;;5110244;28;20127;-63
2021/08/05 12:28:42;;;;;;;4.13;2.15;;;27.90;52.10;;;;;;5101412;28;20036;-62
2021/08/05 12:31:17;;;;;;;5.97;5.13;;;27.30;53.40;;;;;;5108447;28;20039;-62
2021/08/05 12:33:49;;;;;;;4.03;2.88;;;27.10;53.60;;;;;;5111103;28;20048;-61
2021/08/05 12:36:23;;;;;;;4.05;2.95;;;27.90;52.40;;;;;;5105395;28;20051;-57
2021/08/05 12:38:53;;;;;;;3.08;2.45;;;28.60;51.50;;;;;;5107799;28;20043;-63
2021/08/05 12:41:22;;;;;;;5.75;5.13;;;28.50;50.70;;;;;;5106545;28;20048;-63
2021/08/05 12:43:49;;;;;;;4.32;2.60;;;29.10;51.10;;;;;;5108135;28;20052;-63
2021/08/05 12:46:16;;;;;;;4.30;2.65;;;29.30;50.10;;;;;;5112358;28;20048;-63
2021/08/05 12:48:43;;;;;;;4.82;2.45;;;29.40;49.50;;;;;;5093697;28;20123;-63
2021/08/05 12:51:16;;;;;;;3.42;2.45;;;30.00;48.50;;;;;;5108111;28;20051;-64
2021/08/05 12:53:42;;;;;;;4.93;3.83;;;30.50;47.30;;;;;;5107847;28;20114;-65
2021/08/05 12:56:14;;;;;;;4.05;2.72;;;29.80;48.40;;;;;;5110787;28;20164;-64
2021/08/05 12:58:54;;;;;;;4.10;3.10;;;29.90;46.20;;;;;;5107619;28;20570;-65
2021/08/05 13:01:25;;;;;;;2.57;1.97;;;29.80;45.70;;;;;;5107734;28;20043;-64
2021/08/05 13:03:55;;;;;;;5.25;3.50;;;30.20;45.80;;;;;;5112388;28;20043;-59